Wednesday, August 24, 2016, 9:40 AM EDT

KLKU, Louisa, Louisa County Airport/freeman Field

Location: Louisa, VA, United States Lat: 38.01
Local Time: 9:40 AM EDT (13:40 GMT) Lon: -77.97
Time Zone: US/Eastern Elev: 492 ft

Show me the last for .
Show Decoded

2016-08-24 09:15 METAR KLKU 241315Z AUTO 00000KT 10SM SCT070 23/19 A3032 RMK AO2 =
2016-08-24 08:55 METAR KLKU 241255Z AUTO 00000KT 10SM BKN070 23/19 A3032 RMK AO2 =
2016-08-24 08:35 METAR KLKU 241235Z AUTO 19003KT 10SM SCT070 22/19 A3032 RMK AO2 =
2016-08-24 08:15 METAR KLKU 241215Z AUTO 00000KT 10SM BKN070 21/18 A3032 RMK AO2 =
2016-08-24 07:55 METAR KLKU 241155Z AUTO 00000KT 10SM BKN070 21/18 A3032 RMK AO2 =
2016-08-24 07:35 METAR KLKU 241135Z AUTO 00000KT 10SM BKN070 21/18 A3032 RMK AO2 =
2016-08-24 07:15 METAR KLKU 241115Z AUTO 00000KT 10SM BKN070 19/18 A3032 RMK AO2 =
2016-08-24 06:55 METAR KLKU 241055Z AUTO 00000KT 10SM OVC070 18/17 A3031 RMK AO2 =
2016-08-24 06:35 METAR KLKU 241035Z AUTO 00000KT 10SM BKN070 18/17 A3031 RMK AO2 =
2016-08-24 06:15 METAR KLKU 241015Z AUTO 00000KT 10SM BKN070 18/17 A3030 RMK AO2 =
2016-08-24 05:55 METAR KLKU 240955Z AUTO 00000KT 10SM BKN070 19/18 A3029 RMK AO2 =
2016-08-24 05:35 METAR KLKU 240935Z AUTO 00000KT 10SM OVC070 20/18 A3029 RMK AO2 =
2016-08-24 05:15 METAR KLKU 240915Z AUTO 00000KT 10SM BKN070 19/18 A3029 RMK AO2 =
2016-08-24 04:55 METAR KLKU 240855Z AUTO 00000KT 10SM BKN070 18/17 A3029 RMK AO2 =
2016-08-24 04:35 METAR KLKU 240835Z AUTO 00000KT 10SM OVC070 17/16 A3028 RMK AO2 =
2016-08-24 04:15 METAR KLKU 240815Z AUTO 00000KT 10SM SCT070 17/16 A3028 RMK AO2 =
2016-08-24 03:55 METAR KLKU 240755Z AUTO 00000KT 1 3/4SM BR BKN070 16/16 A3028 RMK AO2 =
2016-08-24 03:35 METAR KLKU 240735Z AUTO 00000KT 7SM CLR 16/16 A3028 RMK AO2 =
2016-08-24 03:15 METAR KLKU 240715Z AUTO 00000KT 10SM CLR 17/16 A3029 RMK AO2 =
2016-08-24 02:55 METAR KLKU 240655Z AUTO 00000KT 5SM BR SCT070 17/16 A3029 RMK AO2 =
2016-08-24 02:35 METAR KLKU 240635Z AUTO 00000KT 10SM SCT070 17/16 A3029 RMK AO2 =
2016-08-24 02:15 METAR KLKU 240615Z AUTO 00000KT 10SM SCT070 17/17 A3029 RMK AO2 =
2016-08-24 01:55 METAR KLKU 240555Z AUTO 00000KT 10SM CLR 17/17 A3029 RMK AO2 =
2016-08-24 01:35 METAR KLKU 240535Z AUTO 00000KT 10SM CLR 18/17 A3029 RMK AO2 =
2016-08-24 01:15 METAR KLKU 240515Z AUTO 00000KT 10SM CLR 18/17 A3030 RMK AO2 =
2016-08-24 00:55 METAR KLKU 240455Z AUTO 00000KT 10SM CLR 19/18 A3029 RMK AO2 =
2016-08-24 00:35 METAR KLKU 240435Z AUTO 00000KT 10SM CLR 19/18 A3030 RMK AO2 =
2016-08-24 00:15 METAR KLKU 240415Z AUTO 00000KT 10SM CLR 18/17 A3030 RMK AO2 =
2016-08-23 23:55 METAR KLKU 240355Z AUTO 00000KT 10SM CLR 20/18 A3030 RMK AO2 =
2016-08-23 23:35 METAR KLKU 240335Z AUTO 00000KT 10SM CLR 21/18 A3030 RMK AO2 =
2016-08-23 23:15 METAR KLKU 240315Z AUTO 12003KT 10SM CLR 21/18 A3029 RMK AO2 =
2016-08-23 22:55 METAR KLKU 240255Z AUTO 00000KT 10SM CLR 21/19 A3029 RMK AO2 =
2016-08-23 22:35 METAR KLKU 240235Z AUTO 00000KT 10SM CLR 20/19 A3029 RMK AO2 =
2016-08-23 22:15 METAR KLKU 240215Z AUTO 00000KT 10SM CLR 22/19 A3029 RMK AO2 =
2016-08-23 21:55 METAR KLKU 240155Z AUTO 00000KT 10SM CLR 21/19 A3028 RMK AO2 =
2016-08-23 21:35 METAR KLKU 240135Z AUTO 00000KT 10SM CLR 21/20 A3028 RMK AO2 =
2016-08-23 21:15 METAR KLKU 240115Z AUTO 00000KT 10SM CLR 21/19 A3028 RMK AO2 =
2016-08-23 20:55 METAR KLKU 240055Z AUTO 00000KT 10SM CLR 21/20 A3027 RMK AO2 =
2016-08-23 20:35 METAR KLKU 240035Z AUTO 00000KT 10SM CLR 22/21 A3027 RMK AO2 =
2016-08-23 20:15 METAR KLKU 240015Z AUTO 00000KT 10SM CLR 22/21 A3027 RMK AO2 =
2016-08-23 19:55 METAR KLKU 232355Z AUTO 00000KT 10SM CLR 23/22 A3026 RMK AO2 =
2016-08-23 19:35 METAR KLKU 232335Z AUTO 00000KT 10SM CLR 25/22 A3026 RMK AO2 =
2016-08-23 19:15 METAR KLKU 232315Z AUTO 00000KT 10SM CLR 26/22 A3026 RMK AO2 =
2016-08-23 18:55 METAR KLKU 232255Z AUTO 00000KT 10SM CLR 28/21 A3025 RMK AO2 =
2016-08-23 18:35 METAR KLKU 232235Z AUTO 00000KT 10SM CLR 28/20 A3026 RMK AO2 =
2016-08-23 18:15 METAR KLKU 232215Z AUTO 00000KT 10SM CLR 29/20 A3026 RMK AO2 =
2016-08-23 17:55 METAR KLKU 232155Z AUTO 00000KT 10SM CLR 29/20 A3026 RMK AO2 =
2016-08-23 17:35 METAR KLKU 232135Z AUTO 09003KT 10SM CLR 29/19 A3026 RMK AO2 =
2016-08-23 17:15 METAR KLKU 232115Z AUTO 00000KT 10SM CLR 29/19 A3027 RMK AO2 =
2016-08-23 16:55 METAR KLKU 232055Z AUTO 15005KT 10SM SCT080 29/19 A3027 RMK AO2 =
2016-08-23 16:35 METAR KLKU 232035Z AUTO 17004KT 10SM SCT049 SCT080 30/19 A3027 RMK AO2 =
2016-08-23 16:15 METAR KLKU 232015Z AUTO 00000KT 10SM SCT047 SCT080 29/19 A3028 RMK AO2 =
2016-08-23 15:55 METAR KLKU 231955Z AUTO 15005KT 10SM SCT049 SCT080 29/18 A3028 RMK AO2 =
2016-08-23 15:35 METAR KLKU 231935Z AUTO 20005KT 10SM SCT049 SCT080 29/19 A3029 RMK AO2 =
2016-08-23 15:15 METAR KLKU 231915Z AUTO 00000KT 10SM BKN080 29/19 A3029 RMK AO2 =
2016-08-23 14:55 METAR KLKU 231855Z AUTO 00000KT 10SM OVC080 29/18 A3030 RMK AO2 =
2016-08-23 14:35 METAR KLKU 231835Z AUTO 08006KT 10SM BKN080 29/20 A3031 RMK AO2 =
2016-08-23 14:15 METAR KLKU 231815Z AUTO 16007KT 130V210 10SM SCT043 BKN080 29/19 A3032 RMK AO2 =
2016-08-23 13:55 METAR KLKU 231755Z AUTO 16003KT 10SM SCT080 28/17 A3032 RMK AO2 =
2016-08-23 13:35 METAR KLKU 231735Z AUTO 15006KT 10SM SCT043 SCT080 29/18 A3032 RMK AO2 =
2016-08-23 13:15 METAR KLKU 231715Z AUTO 14003KT 10SM SCT041 SCT080 28/20 A3033 RMK AO2 =
2016-08-23 12:55 METAR KLKU 231655Z AUTO 00000KT 10SM SCT036 SCT047 29/21 A3033 RMK AO2 =
2016-08-23 12:35 METAR KLKU 231635Z AUTO 12004KT 10SM SCT034 SCT075 28/20 A3033 RMK AO2 =
2016-08-23 12:15 METAR KLKU 231615Z AUTO 08004KT 10SM SCT075 27/20 A3033 RMK AO2 =
2016-08-23 11:55 METAR KLKU 231555Z AUTO 00000KT 10SM BKN075 28/21 A3033 RMK AO2 =
2016-08-23 11:35 METAR KLKU 231535Z AUTO 10004KT 10SM SCT075 27/20 A3034 RMK AO2 =
2016-08-23 11:15 METAR KLKU 231515Z AUTO 11006KT 10SM SCT075 27/20 A3034 RMK AO2 =
2016-08-23 10:55 METAR KLKU 231455Z AUTO 11003KT 10SM BKN075 27/20 A3034 RMK AO2 =
2016-08-23 10:35 METAR KLKU 231435Z AUTO 08006KT 10SM BKN075 26/19 A3034 RMK AO2 =
2016-08-23 10:15 METAR KLKU 231415Z AUTO 09006KT 10SM SCT075 26/19 A3034 RMK AO2 =
2016-08-23 09:55 METAR KLKU 231355Z AUTO 09004KT 10SM SCT075 25/19 A3034 RMK AO2 =

Support USWX by starting your Amazon purchase here.